Crooked Creek Research Lab Weather observations

Data are for 10 minute period ending at time listed.
 Day   Time    Ave.   Ave.  Ave.  Vector   Max.   Stn.    Total    Solar   Ave.   Snow 
  of    of     Air    Rel.  Wind   Wind    Wind   Baro.  Precip.   Rad.    Soil   Depth
Year   Day     Temp.  Hum.  Speed  Dir.    Gust   Pres.                    Temp.       
2016   (PST)    F      %     mph   deg.    mph     mb.     in.     W/m2     F      in. 
---------------------------------------------------------------------------------------  
 343   21:20   33.4    44   12.9   263     22.8   704.2    0.00       0    999.0    -0.5
 343   21:30   33.5    43   13.0   256     23.2   704.2    0.00       0    999.0    -0.6
 343   21:40   33.6    42   14.5   255     22.5   704.4    0.00       0    999.0    -0.6
 343   21:50   33.5    42   13.6   259     23.4   704.4    0.00       0    999.0    -0.6
 343   22:00   33.5    41   13.1   254     19.4   704.7    0.00       0    999.0    -0.6
 343   22:10   33.5    41   10.8   259     18.9   704.8    0.00       0    999.0    -0.7
 343   22:20   33.4    42   12.0   259     22.9   704.9    0.00       0    999.0    -0.5
 343   22:30   33.3    43   12.0   256     19.8   704.8    0.00       0    999.0    -0.6
 343   22:40   33.4    42   10.6   256     17.7   704.8    0.00       0    999.0    -0.5
 343   22:50   33.4    44   11.7   260     21.9   704.9    0.00       0    999.0    -0.5
 343   23:00   33.3    46   12.6   252     25.1   704.9    0.00       0    999.0    -0.5
 343   23:10   33.2    46   12.1   254     23.4   705.0    0.00       0    999.0    -0.6
 343   23:20   32.9    46   11.7   247     23.7   705.1    0.00       0    999.0    -0.6
 343   23:30   32.7    47   10.8   249     19.4   704.9    0.00       0    999.0    -0.6
 343   23:40   32.5    47   11.9   250     20.6   705.1    0.00       0    999.0    -0.6
 343   23:50   32.5    48   11.3   251     19.6   705.0    0.00       0    999.0    -0.6
 344    0:00   32.4    49   10.7   250     21.2   704.8    0.00       0    999.0    -0.6
 344    0:10   32.5    47   11.3   252     22.7   704.7    0.00       0    999.0    -0.6
 344    0:20   33.1    45   11.1   256     20.8   704.7    0.00       0    999.0    -0.6
 344    0:30   33.3    44   12.1   254     19.9   704.8    0.00       0    999.0    -0.6
 344    0:40   33.2    44   11.8   253     22.2   704.8    0.00       0    999.0    -0.6
 344    0:50   33.1    44   12.9   253     21.9   704.6    0.00       0    999.0    -0.5
 344    1:00   33.2    43   11.3   253     17.9   704.8    0.00       0    999.0    -0.6
 344    1:10   33.3    42   11.9   247     21.8   704.9    0.00       0    999.0    -0.7
 344    1:20   33.2    42   10.8   254     19.3   704.8    0.00       0    999.0    -0.7
 344    1:30   33.2    41   11.8   253     22.6   705.0    0.00       0    999.0    -0.6
 344    1:40   33.4    39   10.6   259     19.6   705.1    0.00       0    999.0    -0.6
 344    1:50   33.3    39    9.8   251     17.2   705.3    0.00       0    999.0    -0.6
 344    2:00   33.3    39   11.3   253     20.0   705.3    0.00       0    999.0    -0.6
 344    2:10   33.2    40   11.0   249     18.6   705.2    0.00       0    999.0    -0.5
 344    2:20   33.1    41   11.1   251     25.2   705.1    0.00       0    999.0    -0.5
 344    2:30   33.0    42   10.8   247     21.9   705.2    0.00       0    999.0    -0.6
 344    2:40   32.5    43   11.9   253     24.8   705.1    0.00       0    999.0    -0.5
 344    2:50   32.5    42    9.4   260     22.4   705.1    0.00       0    999.0    -0.6
 344    3:00   32.6    41   10.9   253     20.1   705.0    0.00       0    999.0    -0.6
 344    3:10   32.3    42    9.8   254     22.5   704.9    0.00       0    999.0    -0.6
 344    3:20   32.2    42   11.9   246     22.6   705.0    0.00       0    999.0    -0.6
 344    3:30   32.2    41   10.4   254     20.4   705.1    0.00       0    999.0    -0.6
 344    3:40   32.0    40   10.7   264     18.4   704.9    0.00       0    999.0    -0.5
 344    3:50   32.2    39    9.5   263     17.3   704.8    0.00       0    999.0    -0.6
 344    4:00   32.2    40   10.4   267     16.4   704.8    0.00       0    999.0    -0.6
 344    4:10   32.0    39    9.8   252     15.3   705.0    0.00       0    999.0    -0.6
 344    4:20   31.8    40    6.7   254     14.3   704.9    0.00       0    999.0    -0.6
 344    4:30   31.7    40    8.3   248     16.1   704.8    0.00       0    999.0    -0.5
 344    4:40   32.0    40    8.4   240     17.0   704.8    0.00       0    999.0    -0.5
 344    4:50   32.3    38    8.0   247     15.6   704.8    0.00       0    999.0    -0.6
 344    5:00   32.5    38    7.6   231     14.2   704.7    0.00       0    999.0    -0.5
 344    5:10   32.6    37    8.4   243     15.3   704.9    0.00       0    999.0    -0.5
 344    5:20   33.1    34    7.6   254     14.4   705.0    0.00       0    999.0    -0.6
 344    5:30   33.3    32    8.6   251     16.9   705.0    0.00       0    999.0    -0.5
 344    5:40   34.3    29   11.7   250     21.2   705.0    0.00       0    999.0    -0.6
 344    5:50   34.5    28   10.8   255     19.0   705.0    0.00       0    999.0    -0.6
 344    6:00   34.4    28   10.8   256     18.4   705.2    0.00       0    999.0    -0.7
 344    6:10   33.9    29   10.4   258     18.4   705.1    0.00       0    999.0    -0.5
 344    6:20   33.8    30   12.4   256     21.4   705.0    0.00       0    999.0    -0.6
 344    6:30   33.8    30   11.6   256     22.9   705.1    0.00       0    999.0    -0.6
 344    6:40   34.5    29   12.7   252     20.8   705.1    0.00       0    999.0    -0.6
 344    6:50   34.4    29   11.3   259     19.4   705.1    0.00       1    999.0    -0.6
 344    7:00   34.3    29   11.4   263     19.1   705.3    0.00       4    999.0    -0.6
 344    7:10   35.0    28    9.8   261     17.2   705.2    0.00      20    999.0    -0.6
 344    7:20   34.8    28    9.9   256     16.4   705.4    0.00      23    999.0    -0.5
 344    7:30   35.1    28    9.8   268     15.2   705.5    0.00      26    999.0    -0.4
 344    7:40   35.7    27    9.7   269     15.0   705.5    0.00      33    999.0    -0.5
 344    7:50   35.7    27    9.6   266     14.2   705.5    0.00      57    999.0    -0.5
 344    8:00   36.2    26   11.2   255     18.0   705.5    0.00      79    999.0    -0.5
 344    8:10   36.8    25    9.8   260     18.6   705.6    0.00      89    999.0    -0.5
 344    8:20   36.6    26   10.3   255     17.7   705.6    0.00     116    999.0    -0.5
 344    8:30   37.8    24   10.6   262     17.7   705.7    0.00     181    999.0    -0.5
 344    8:40   37.8    26   10.8   242     18.5   705.7    0.00     221    999.0    -0.6
 344    8:50   38.0    26   10.2   245     17.1   705.9    0.00     283    999.0    -0.6
 344    9:00   39.1    24    8.1   262     14.9   705.8    0.00     224    999.0    -0.5
 344    9:10   39.0    24    8.5   250     14.8   706.1    0.00     182    999.0    -0.5
 344    9:20   39.3    23    9.3   257     16.1   706.0    0.00     322    999.0    -0.6
 344    9:30   39.6    22    9.4   247     16.6   706.1    0.00     260    999.0    -0.6
 344    9:40   39.8    23    8.3   258     16.4   706.3    0.00     335    999.0    -0.5
 344    9:50   40.2    22    9.3   260     18.2   706.4    0.00     327    999.0    -0.6
 344   10:00   40.1    23    7.9   268     16.4   706.2    0.00     285    999.0    -0.5
 344   10:10   40.5    23    5.9   259     11.1   706.2    0.00     405    999.0    -0.5
 344   10:20   41.7    22    5.0   224     12.6   706.0    0.00     495    999.0    -0.6
 344   10:30   42.8    22    4.7   231     16.4   706.0    0.00     506    999.0    -0.8
 344   10:40   43.3    22    6.6   264     13.5   706.0    0.00     509    999.0    -0.6
 344   10:50   43.2    22    6.2   248     11.8   706.0    0.00     500    999.0    -0.7
 344   11:00   43.2    22    5.9   250     14.0   706.0    0.00     515    999.0    -0.6
 344   11:10   43.9    23    6.0   259     15.6   705.9    0.00     518    999.0    -0.6
 344   11:20   43.8    22    6.6   266     14.2   705.9    0.00     519    999.0    -0.5
 344   11:30   43.8    23    6.9   270     13.7   705.9    0.00     523    999.0    -0.6
 344   11:40   43.2    24    7.7   266     17.0   705.9    0.00     524    999.0    -0.6
 344   11:50   43.4    24    7.1   266     14.8   705.8    0.00     526    999.0    -0.5
 344   12:00   44.1    24    6.2   271     13.9   705.7    0.00     521    999.0    -0.6
 344   12:10   44.4    24    7.4   272     14.6   705.7    0.00     517    999.0    -0.6
 344   12:20   44.0    25    6.6   282     12.5   705.7    0.00     497    999.0    -0.5
 344   12:30   44.2    26    5.6   270     13.0   705.7    0.00     468    999.0    -0.6
 344   12:40   42.8    27    8.8   245     16.7   705.6    0.00     462    999.0    -0.6
 344   12:50   42.4    28    8.8   251     17.9   705.5    0.00     389    999.0    -0.6
 344   13:00   41.9    28    8.0   266     16.9   705.2    0.00     333    999.0    -0.6
 344   13:10   42.1    28    8.4   256     16.1   705.3    0.00     396    999.0    -0.6
 344   13:20   42.3    29    7.8   256     15.4   705.2    0.00     373    999.0    -0.7
 344   13:30   41.4    30    7.2   258     15.9   705.2    0.00     239    999.0    -0.6
 344   13:40   40.9    30    7.6   266     15.5   705.4    0.00     216    999.0    -0.6
 344   13:50   40.3    31    9.0   263     15.6   705.2    0.00     250    999.0    -0.6
 344   14:00   39.9    31   10.8   261     21.3   705.4    0.00     222    999.0    -0.6
 344   14:10   39.8    32    9.4   264     18.2   705.2    0.00     220    999.0    -0.7
 344   14:20   39.7    31   10.5   259     17.6   705.2    0.00     198    999.0    -0.6
 344   14:30   39.3    33    7.9   251     18.5   705.4    0.00     171    999.0    -0.6
 344   14:40   39.1    33    8.1   256     14.5   705.4    0.00     171    999.0    -0.6
 344   14:50   38.9    33    8.0   270     17.1   705.4    0.00     135    999.0    -0.6
 344   15:00   38.5    34    7.4   265     14.8   705.5    0.00     108    999.0    -0.6
 344   15:10   38.0    34    8.7   260     13.4   705.2    0.00     114    999.0    -0.6
 344   15:20   38.3    34    8.1   262     14.5   705.2    0.00     148    999.0    -0.6
 344   15:30   38.7    34    9.1   264     16.7   705.2    0.00     118    999.0    -0.6
 344   15:40   38.7    35    8.5   251     15.8   705.1    0.00      88    999.0    -0.6
 344   15:50   38.7    35    7.2   242     13.6   705.0    0.00     107    999.0    -0.6
 344   16:00   37.5    36    6.5   242     13.5   705.2    0.00      43    999.0    -0.6
 344   16:10   36.5    37    6.6   238     11.9   705.0    0.00      23    999.0    -0.6
 344   16:20   35.5    39    5.2   243     12.5   704.8    0.00      10    999.0    -0.6
 344   16:30   34.5    40    4.8   246     12.6   704.9    0.00       4    999.0    -0.6
 344   16:40   34.1    41    6.5   243     11.4   704.7    0.00       3    999.0    -0.7
 344   16:50   33.9    43    7.2   245     12.4   704.7    0.00       1    999.0    -0.6
 344   17:00   33.4    44    5.4   240      9.9   704.7    0.00       0    999.0    -0.7
 344   17:10   33.2    44    5.2   242      9.7   704.7    0.00       0    999.0    -0.6
 344   17:20   32.2    47    3.1   272      7.8   704.8    0.00       0    999.0    -0.7
 344   17:30   29.5    53    2.2   257      3.7   704.7    0.00       0    999.0    -0.7
 344   17:40   29.7    52    4.1   257     10.7   704.7    0.00       0    999.0    -0.5
 344   17:50   30.9    50    3.8   253      6.7   704.9    0.00       0    999.0    -0.5
 344   18:00   30.8    49    3.3   251      9.9   704.7    0.00       0    999.0    -0.5
 344   18:10   32.1    47    4.5   237     11.0   704.8    0.00       0    999.0    -0.4
 344   18:20   32.3    46    3.2   243      7.1   704.7    0.00       0    999.0    -0.4
 344   18:30   30.5    50    1.8   254      6.3   704.6    0.00       0    999.0    -0.7
 344   18:40   28.1    55    2.1   260      4.9   704.6    0.00       0    999.0    -0.6
 344   18:50   26.8    58    2.2   294      6.6   704.6    0.00       0    999.0    -0.5
 344   19:00   28.1    53    2.3   271      4.7   704.5    0.00       0    999.0    -0.5
 344   19:10   28.6    50    3.6   266      7.7   704.6    0.00       0    999.0    -0.6
 344   19:20   29.4    49    4.7   265      8.1   704.7    0.00       0    999.0    -0.5
 344   19:30   31.1    42    6.3   249     11.5   704.6    0.00       0    999.0    -0.5
 344   19:40   33.0    37    7.1   257     15.3   704.7    0.00       0    999.0    -0.6
 344   19:50   33.6    36    5.9   264     11.3   704.9    0.00       0    999.0    -0.7
 344   20:00   32.9    38    7.4   255     12.9   704.6    0.00       0    999.0    -0.6
 344   20:10   32.3    40    5.5   266     12.9   704.7    0.00       0    999.0    -0.6
 344   20:20   32.4    38    6.6   263     12.8   705.0    0.00       0    999.0    -0.6
 344   20:30   33.0    36    8.7   263     17.4   705.0    0.00       0    999.0    -0.6
 344   20:40   33.5    36    8.2   256     16.8   704.7    0.00       0    999.0    -0.7
 344   20:50   33.1    37    7.9   246     16.7   704.7    0.00       0    999.0    -0.7
 344   21:00   32.7    38    6.9   259     13.2   704.7    0.00       0    999.0    -0.6
 344   21:10   32.8    39    6.7   263     14.0   704.7    0.00       0    999.0    -0.6

Return to Crooked Creek Research Lab graphs page.


Western Regional Climate Center,wrcc@dri.edu